Time;durP1;ratioP1;P1;durP2;ratioP2;P2;SDS_P1;SDS_P2;PMS_P1;PMS_P2;Temp;Humidity;BMP_temperature;BMP_pressure;BME280_temperature;BME280_humidity;BME280_pressure;Samples;Min_cycle;Max_cycle;Signal;HPM_P1;HPM_P2
2021/09/04 00:01:28;;;;;;;;;12.25;12.25;;;;;;;;5061456;28;8808;-81
2021/09/04 00:03:55;;;;;;;;;11.50;11.50;;;;;;;;5050214;28;8892;-78
2021/09/04 00:06:23;;;;;;;;;14.00;12.25;;;;;;;;5075017;28;9008;-87
2021/09/04 00:08:50;;;;;;;;;13.40;13.40;;;;;;;;5070879;28;8844;-87
2021/09/04 00:11:19;;;;;;;;;14.00;12.00;;;;;;;;5066229;28;8864;-88
2021/09/04 00:13:46;;;;;;;;;12.00;12.00;;;;;;;;5072287;28;8906;-87
2021/09/04 00:16:15;;;;;;;;;13.20;12.40;;;;;;;;5068989;28;8891;-85
2021/09/04 00:18:43;;;;;;;;;14.50;12.00;;;;;;;;5076560;28;8891;-85
2021/09/04 00:21:10;;;;;;;;;12.75;11.00;;;;;;;;5070649;28;8865;-82
2021/09/04 00:23:38;;;;;;;;;12.25;12.00;;;;;;;;5077379;28;8885;-86
2021/09/04 00:26:05;;;;;;;;;14.75;12.00;;;;;;;;5066924;28;8889;-87
2021/09/04 00:28:32;;;;;;;;;15.00;14.50;;;;;;;;5068881;28;8865;-85
2021/09/04 00:30:59;;;;;;;;;16.00;15.25;;;;;;;;5047075;28;8801;-86
2021/09/04 00:33:28;;;;;;;;;11.75;11.75;;;;;;;;5070004;28;8960;-85
2021/09/04 00:35:56;;;;;;;;;13.25;12.75;;;;;;;;5064914;28;8880;-86
2021/09/04 00:38:23;;;;;;;;;11.75;11.75;;;;;;;;5064825;28;8880;-85
2021/09/04 00:40:51;;;;;;;;;10.50;10.50;;;;;;;;5065035;28;8910;-86
2021/09/04 00:43:18;;;;;;;;;17.00;13.25;;;;;;;;5063963;28;8867;-88
2021/09/04 00:45:45;;;;;;;;;11.50;11.50;;;;;;;;5071840;28;8866;-85
2021/09/04 00:48:12;;;;;;;;;8.75;7.75;;;;;;;;5070912;28;8859;-87
2021/09/04 00:50:43;;;;;;;;;12.25;12.25;;;;;;;;5070651;28;8903;-86
2021/09/04 00:53:10;;;;;;;;;11.75;11.75;;;;;;;;5065908;28;8966;-83
2021/09/04 00:55:38;;;;;;;;;12.50;12.50;;;;;;;;5063238;28;8976;-86
2021/09/04 00:58:06;;;;;;;;;14.50;14.50;;;;;;;;5075951;28;8892;-89
2021/09/04 01:00:33;;;;;;;;;12.25;11.50;;;;;;;;5064498;28;8946;-87
2021/09/04 01:03:01;;;;;;;;;14.50;14.50;;;;;;;;5073342;28;8991;-87
2021/09/04 01:05:28;;;;;;;;;11.75;11.75;;;;;;;;5068241;28;8895;-83
2021/09/04 01:07:57;;;;;;;;;11.25;11.25;;;;;;;;5072350;28;8876;-86
2021/09/04 01:10:26;;;;;;;;;10.75;10.75;;;;;;;;5068626;28;8862;-87
2021/09/04 01:12:53;;;;;;;;;11.25;11.25;;;;;;;;5076648;28;8958;-84
2021/09/04 01:15:21;;;;;;;;;13.25;13.25;;;;;;;;5069806;28;8863;-86
2021/09/04 01:17:48;;;;;;;;;12.00;11.50;;;;;;;;5082463;28;8899;-81
2021/09/04 01:20:16;;;;;;;;;16.75;16.00;;;;;;;;5053301;28;8880;-86
2021/09/04 01:22:43;;;;;;;;;19.00;16.50;;;;;;;;5075841;28;8860;-87
2021/09/04 01:25:23;;;;;;;;;18.25;17.25;;;;;;;;5059588;28;8980;-86
2021/09/04 01:27:52;;;;;;;;;12.75;12.75;;;;;;;;5073963;28;8871;-86
2021/09/04 01:30:19;;;;;;;;;14.75;14.00;;;;;;;;5075015;28;8876;-85
2021/09/04 01:32:46;;;;;;;;;15.75;12.50;;;;;;;;5074398;28;8857;-86
2021/09/04 01:35:19;;;;;;;;;16.25;16.25;;;;;;;;5076975;28;8879;-80
2021/09/04 01:37:46;;;;;;;;;9.50;9.50;;;;;;;;5049440;28;8973;-84
2021/09/04 01:40:14;;;;;;;;;16.75;15.00;;;;;;;;5064946;28;8856;-84
2021/09/04 01:42:43;;;;;;;;;14.50;14.25;;;;;;;;5055360;28;8906;-86
2021/09/04 01:45:13;;;;;;;;;13.50;13.50;;;;;;;;5070213;28;8883;-87
2021/09/04 01:47:41;;;;;;;;;13.75;13.75;;;;;;;;5064504;28;8882;-87
2021/09/04 01:50:10;;;;;;;;;16.25;16.25;;;;;;;;5078390;28;8945;-88
2021/09/04 01:52:37;;;;;;;;;14.00;14.00;;;;;;;;5083860;28;8865;-90
2021/09/04 01:55:06;;;;;;;;;17.75;16.50;;;;;;;;5075511;28;9831;-89
2021/09/04 01:57:33;;;;;;;;;14.00;14.00;;;;;;;;5071030;28;9728;-89
2021/09/04 02:00:00;;;;;;;;;15.00;14.25;;;;;;;;5068642;28;8875;-87
2021/09/04 02:02:29;;;;;;;;;8.25;8.25;;;;;;;;5069705;28;8828;-88
2021/09/04 02:04:56;;;;;;;;;19.00;17.75;;;;;;;;5077916;28;8873;-87
2021/09/04 02:07:23;;;;;;;;;14.25;14.25;;;;;;;;5057734;28;8864;-89
2021/09/04 02:09:51;;;;;;;;;13.50;13.50;;;;;;;;5067283;28;8852;-90
2021/09/04 02:12:18;;;;;;;;;18.75;16.50;;;;;;;;5072738;28;9618;-86
2021/09/04 02:14:46;;;;;;;;;14.50;13.25;;;;;;;;5063506;28;8873;-89
2021/09/04 02:17:13;;;;;;;;;18.75;17.25;;;;;;;;5077218;28;8880;-87
2021/09/04 02:19:42;;;;;;;;;15.00;15.00;;;;;;;;5073659;28;8856;-86
2021/09/04 02:22:11;;;;;;;;;14.50;14.50;;;;;;;;5048654;28;8880;-87
2021/09/04 02:24:38;;;;;;;;;11.50;11.50;;;;;;;;5074712;28;8968;-85
2021/09/04 02:27:06;;;;;;;;;15.50;15.50;;;;;;;;5070133;28;8889;-88
2021/09/04 02:29:34;;;;;;;;;13.00;13.00;;;;;;;;5073337;28;8949;-86
2021/09/04 02:32:02;;;;;;;;;14.00;14.00;;;;;;;;5077815;28;8907;-88
2021/09/04 02:34:29;;;;;;;;;16.75;16.75;;;;;;;;5074733;28;8857;-77
2021/09/04 02:36:58;;;;;;;;;16.50;16.00;;;;;;;;5070546;28;8975;-85
2021/09/04 02:39:25;;;;;;;;;19.50;19.50;;;;;;;;5067558;28;8901;-87
2021/09/04 02:41:52;;;;;;;;;18.75;17.25;;;;;;;;5066893;28;8864;-84
2021/09/04 02:44:20;;;;;;;;;17.00;17.00;;;;;;;;5071428;28;8864;-85
2021/09/04 02:46:47;;;;;;;;;22.25;20.00;;;;;;;;5072599;28;8849;-84
2021/09/04 02:49:14;;;;;;;;;19.00;19.00;;;;;;;;5066846;28;8898;-88
2021/09/04 02:51:41;;;;;;;;;16.75;16.75;;;;;;;;5068866;28;8987;-85
2021/09/04 02:54:11;;;;;;;;;19.25;17.00;;;;;;;;5065776;28;8848;-88
2021/09/04 02:56:38;;;;;;;;;16.50;16.50;;;;;;;;5071225;28;8936;-85
2021/09/04 02:59:06;;;;;;;;;24.75;24.25;;;;;;;;5069516;28;8889;-86
2021/09/04 03:01:33;;;;;;;;;21.00;16.25;;;;;;;;5063827;28;8825;-87
2021/09/04 03:04:00;;;;;;;;;18.25;16.75;;;;;;;;5066609;28;8864;-86
2021/09/04 03:06:28;;;;;;;;;20.75;18.00;;;;;;;;5070688;28;8875;-83
2021/09/04 03:08:55;;;;;;;;;18.25;18.25;;;;;;;;5066578;28;8883;-87
2021/09/04 03:11:24;;;;;;;;;20.00;18.75;;;;;;;;5064981;28;8867;-84
2021/09/04 03:13:51;;;;;;;;;19.50;19.50;;;;;;;;5063875;28;8890;-84
2021/09/04 03:16:18;;;;;;;;;17.75;17.75;;;;;;;;5080976;28;8877;-89
2021/09/04 03:18:46;;;;;;;;;16.50;15.75;;;;;;;;5079710;28;9746;-88
2021/09/04 03:21:13;;;;;;;;;20.00;20.00;;;;;;;;5070599;28;8864;-87
2021/09/04 03:23:40;;;;;;;;;16.75;16.00;;;;;;;;5081994;28;8869;-88
2021/09/04 03:26:08;;;;;;;;;20.25;20.25;;;;;;;;5072932;28;8917;-88
2021/09/04 03:28:37;;;;;;;;;22.00;21.00;;;;;;;;5062396;28;8853;-87
2021/09/04 03:31:04;;;;;;;;;19.50;18.00;;;;;;;;5063144;28;8801;-86
2021/09/04 03:33:31;;;;;;;;;21.00;19.75;;;;;;;;5072742;28;8829;-88
2021/09/04 03:35:59;;;;;;;;;23.00;19.75;;;;;;;;5076353;28;8908;-87
2021/09/04 03:38:27;;;;;;;;;16.25;16.25;;;;;;;;5050028;28;8861;-86
2021/09/04 03:40:54;;;;;;;;;17.00;17.00;;;;;;;;5069684;28;8863;-86
2021/09/04 03:43:21;;;;;;;;;23.50;21.75;;;;;;;;5081361;28;8953;-87
2021/09/04 03:45:50;;;;;;;;;18.00;18.00;;;;;;;;5065166;28;8979;-80
2021/09/04 03:48:17;;;;;;;;;19.75;19.75;;;;;;;;5047809;28;8872;-84
2021/09/04 03:50:44;;;;;;;;;17.75;17.75;;;;;;;;5065735;28;8852;-88
2021/09/04 03:53:12;;;;;;;;;16.75;16.75;;;;;;;;5064325;28;8863;-85
2021/09/04 03:55:39;;;;;;;;;20.50;18.75;;;;;;;;5075999;28;8964;-86
2021/09/04 03:58:07;;;;;;;;;20.00;18.50;;;;;;;;5054405;28;8861;-82
2021/09/04 04:00:34;;;;;;;;;20.50;19.25;;;;;;;;5071177;28;8820;-86
2021/09/04 04:03:03;;;;;;;;;18.25;18.25;;;;;;;;5066735;28;8875;-88
2021/09/04 04:05:31;;;;;;;;;20.00;18.25;;;;;;;;5072704;28;8900;-86
2021/09/04 04:07:58;;;;;;;;;23.50;20.75;;;;;;;;5058454;28;8968;-85
2021/09/04 04:10:25;;;;;;;;;19.25;19.25;;;;;;;;5065724;28;8892;-81
2021/09/04 04:12:53;;;;;;;;;20.00;20.00;;;;;;;;5057093;28;8892;-85
2021/09/04 04:15:20;;;;;;;;;23.25;19.00;;;;;;;;5072628;28;8875;-79
2021/09/04 04:17:47;;;;;;;;;16.00;16.00;;;;;;;;5071815;28;8880;-86
2021/09/04 04:20:16;;;;;;;;;17.00;17.00;;;;;;;;5063470;28;8880;-79
2021/09/04 04:22:43;;;;;;;;;21.25;18.75;;;;;;;;5064079;28;8872;-83
2021/09/04 04:25:12;;;;;;;;;17.50;17.00;;;;;;;;5068953;28;8844;-88
2021/09/04 04:27:39;;;;;;;;;21.25;20.25;;;;;;;;5064632;28;8848;-91
2021/09/04 04:30:08;;;;;;;;;17.75;17.25;;;;;;;;5068142;28;9696;-87
2021/09/04 04:32:35;;;;;;;;;17.25;17.25;;;;;;;;5072220;28;8879;-84
2021/09/04 04:35:02;;;;;;;;;15.75;15.00;;;;;;;;5069492;28;9656;-87
2021/09/04 04:37:31;;;;;;;;;18.25;17.25;;;;;;;;5067231;28;8869;-90
2021/09/04 04:39:58;;;;;;;;;22.25;19.00;;;;;;;;5072684;28;8868;-85
2021/09/04 04:42:26;;;;;;;;;18.25;18.25;;;;;;;;5060809;28;8856;-88
2021/09/04 04:44:53;;;;;;;;;21.25;20.00;;;;;;;;5066648;28;8985;-88
2021/09/04 04:47:20;;;;;;;;;15.75;15.75;;;;;;;;5067116;28;8873;-86
2021/09/04 04:49:48;;;;;;;;;14.75;14.75;;;;;;;;5055234;28;8895;-87
2021/09/04 04:52:15;;;;;;;;;17.25;17.25;;;;;;;;5068706;28;8855;-85
2021/09/04 04:54:44;;;;;;;;;22.00;20.00;;;;;;;;5053359;28;8881;-86
2021/09/04 04:57:11;;;;;;;;;15.75;14.50;;;;;;;;5076588;28;8855;-79
2021/09/04 04:59:38;;;;;;;;;17.50;17.50;;;;;;;;5069628;28;8879;-79
2021/09/04 05:02:06;;;;;;;;;18.50;17.75;;;;;;;;5068206;28;9601;-87
2021/09/04 05:04:33;;;;;;;;;26.00;22.50;;;;;;;;5054048;28;8844;-83
2021/09/04 05:07:01;;;;;;;;;20.75;20.75;;;;;;;;5050237;28;8848;-83
2021/09/04 05:09:28;;;;;;;;;23.00;19.25;;;;;;;;5073639;28;8850;-78
2021/09/04 05:11:57;;;;;;;;;22.50;22.50;;;;;;;;5069954;28;8880;-85
2021/09/04 05:14:24;;;;;;;;;21.50;19.25;;;;;;;;5072738;28;9034;-79
2021/09/04 05:16:51;;;;;;;;;24.25;20.75;;;;;;;;5072486;28;8871;-80
2021/09/04 05:19:19;;;;;;;;;20.75;20.75;;;;;;;;5086325;28;9032;-78
2021/09/04 05:21:46;;;;;;;;;21.75;18.75;;;;;;;;5067127;28;8866;-80
2021/09/04 05:24:14;;;;;;;;;19.75;17.75;;;;;;;;5074317;28;8900;-78
2021/09/04 05:26:41;;;;;;;;;19.00;19.00;;;;;;;;5055997;28;8878;-78
2021/09/04 05:29:10;;;;;;;;;17.00;17.00;;;;;;;;5067690;28;8988;-83
2021/09/04 05:31:37;;;;;;;;;21.00;21.00;;;;;;;;5075049;28;8871;-82
2021/09/04 05:34:04;;;;;;;;;21.50;19.75;;;;;;;;5086680;28;8885;-80
2021/09/04 05:36:31;;;;;;;;;21.75;21.75;;;;;;;;5087233;28;9016;-80
2021/09/04 05:38:59;;;;;;;;;22.25;21.00;;;;;;;;5068326;28;9640;-78
2021/09/04 05:41:26;;;;;;;;;23.00;21.00;;;;;;;;5066363;28;8897;-77
2021/09/04 05:43:54;;;;;;;;;18.75;18.75;;;;;;;;5066730;28;8856;-79
2021/09/04 05:46:22;;;;;;;;;20.00;18.75;;;;;;;;5076900;28;8913;-78
2021/09/04 05:48:50;;;;;;;;;19.75;18.50;;;;;;;;5067253;28;8910;-77
2021/09/04 05:51:17;;;;;;;;;23.25;22.75;;;;;;;;5068448;28;8881;-77
2021/09/04 05:53:44;;;;;;;;;23.00;21.50;;;;;;;;5079907;28;8902;-77
2021/09/04 05:56:11;;;;;;;;;21.50;19.75;;;;;;;;5071864;28;8889;-77
2021/09/04 05:58:40;;;;;;;;;22.00;19.25;;;;;;;;5074779;28;8933;-76
2021/09/04 06:01:07;;;;;;;;;21.25;21.25;;;;;;;;5073307;28;8837;-74
2021/09/04 06:03:37;;;;;;;;;22.00;21.25;;;;;;;;5068107;28;8893;-72
2021/09/04 06:06:04;;;;;;;;;27.75;23.25;;;;;;;;5073098;28;8955;-73
2021/09/04 06:08:31;;;;;;;;;23.00;23.00;;;;;;;;5082223;28;9605;-72
2021/09/04 06:10:58;;;;;;;;;23.00;23.00;;;;;;;;5069830;28;8887;-72
2021/09/04 06:13:26;;;;;;;;;25.75;23.25;;;;;;;;5064935;28;8891;-72
2021/09/04 06:15:53;;;;;;;;;23.25;21.25;;;;;;;;5081139;28;9012;-72
2021/09/04 06:18:20;;;;;;;;;21.25;21.25;;;;;;;;5078769;28;8848;-73
2021/09/04 06:20:48;;;;;;;;;22.75;22.75;;;;;;;;5079748;28;8853;-72
2021/09/04 06:23:16;;;;;;;;;24.50;23.75;;;;;;;;5077650;28;9609;-77
2021/09/04 06:25:43;;;;;;;;;23.00;22.50;;;;;;;;5072935;28;8861;-77
2021/09/04 06:28:11;;;;;;;;;21.50;20.50;;;;;;;;5061769;28;8980;-76
2021/09/04 06:30:38;;;;;;;;;28.00;27.00;;;;;;;;5075655;28;8823;-79
2021/09/04 06:33:05;;;;;;;;;24.25;22.75;;;;;;;;5072053;28;8902;-78
2021/09/04 06:35:32;;;;;;;;;23.75;23.75;;;;;;;;5069365;28;8865;-74
2021/09/04 06:38:01;;;;;;;;;27.50;26.25;;;;;;;;5064891;28;8872;-75
2021/09/04 06:40:28;;;;;;;;;24.25;22.75;;;;;;;;5064286;28;8894;-74
2021/09/04 06:42:56;;;;;;;;;22.00;21.00;;;;;;;;5065350;28;8876;-75
2021/09/04 06:45:23;;;;;;;;;33.50;28.00;;;;;;;;5066328;28;8865;-74
2021/09/04 06:47:50;;;;;;;;;26.50;25.00;;;;;;;;5045359;28;8860;-75
2021/09/04 06:50:18;;;;;;;;;28.75;26.75;;;;;;;;5064189;28;8883;-75
2021/09/04 06:52:46;;;;;;;;;15.75;15.75;;;;;;;;5064349;28;8880;-76
2021/09/04 06:55:14;;;;;;;;;21.00;21.00;;;;;;;;5063158;28;8867;-75
2021/09/04 06:57:42;;;;;;;;;23.50;22.00;;;;;;;;5064850;28;9011;-76
2021/09/04 07:00:10;;;;;;;;;21.75;21.00;;;;;;;;5063677;28;8880;-74
2021/09/04 07:02:37;;;;;;;;;22.25;20.75;;;;;;;;5063803;28;8882;-76
2021/09/04 07:05:06;;;;;;;;;21.00;21.00;;;;;;;;5063361;28;8859;-75
2021/09/04 07:07:33;;;;;;;;;23.75;22.25;;;;;;;;5063998;28;8855;-74
2021/09/04 07:10:00;;;;;;;;;26.50;26.50;;;;;;;;5060235;28;8876;-74
2021/09/04 07:12:29;;;;;;;;;22.50;20.25;;;;;;;;5069540;28;8896;-75
2021/09/04 07:14:56;;;;;;;;;20.75;19.00;;;;;;;;5066062;28;8879;-75
2021/09/04 07:17:23;;;;;;;;;27.75;22.75;;;;;;;;5063268;28;8872;-76
2021/09/04 07:19:51;;;;;;;;;20.00;20.00;;;;;;;;5060837;28;10131;-76
2021/09/04 07:22:18;;;;;;;;;19.50;19.25;;;;;;;;5068867;28;8849;-75
2021/09/04 07:24:46;;;;;;;;;17.75;16.25;;;;;;;;5070571;28;8897;-72
2021/09/04 07:27:13;;;;;;;;;18.25;17.25;;;;;;;;5061274;28;8910;-75
2021/09/04 07:29:42;;;;;;;;;19.00;19.00;;;;;;;;5067139;28;9464;-75
2021/09/04 07:32:09;;;;;;;;;16.50;16.50;;;;;;;;5060110;28;8808;-75
2021/09/04 07:34:36;;;;;;;;;19.00;17.20;;;;;;;;5064683;28;8902;-75
2021/09/04 07:37:04;;;;;;;;;19.80;19.40;;;;;;;;5067408;28;8879;-76
2021/09/04 07:39:31;;;;;;;;;20.40;20.40;;;;;;;;5059268;28;8929;-76
2021/09/04 07:41:58;;;;;;;;;17.80;16.60;;;;;;;;5064695;28;8891;-76
2021/09/04 07:44:25;;;;;;;;;23.60;21.20;;;;;;;;5063791;28;8886;-76
2021/09/04 07:46:54;;;;;;;;;29.40;29.40;;;;;;;;5059108;28;9600;-76
2021/09/04 07:49:21;;;;;;;;;33.75;31.25;;;;;;;;5069026;28;8886;-76
2021/09/04 07:51:49;;;;;;;;;29.25;28.00;;;;;;;;5064818;28;8884;-76
2021/09/04 07:54:16;;;;;;;;;32.75;29.25;;;;;;;;5071950;28;9042;-75
2021/09/04 07:56:43;;;;;;;;;35.75;31.75;;;;;;;;5067963;28;8852;-76
2021/09/04 07:59:11;;;;;;;;;34.75;30.25;;;;;;;;5063374;28;9701;-75
2021/09/04 08:01:38;;;;;;;;;32.75;31.00;;;;;;;;5046294;28;9630;-75
2021/09/04 08:04:07;;;;;;;;;25.00;22.40;;;;;;;;5049420;28;8857;-75
2021/09/04 08:06:34;;;;;;;;;23.40;23.40;;;;;;;;5065523;28;9090;-76
2021/09/04 08:09:02;;;;;;;;;29.60;29.40;;;;;;;;5063907;28;8871;-76
2021/09/04 08:11:29;;;;;;;;;23.40;23.00;;;;;;;;5067378;28;9040;-76
2021/09/04 08:13:56;;;;;;;;;25.80;25.80;;;;;;;;5067993;28;8895;-75
2021/09/04 08:16:24;;;;;;;;;33.00;30.00;;;;;;;;5065937;28;8882;-76
2021/09/04 08:18:51;;;;;;;;;29.00;27.25;;;;;;;;5059817;28;10410;-75
2021/09/04 08:21:20;;;;;;;;;26.60;26.60;;;;;;;;5062717;28;8957;-76
2021/09/04 08:23:47;;;;;;;;;25.80;25.80;;;;;;;;5061067;28;8871;-75
2021/09/04 08:26:14;;;;;;;;;26.00;24.00;;;;;;;;5062403;28;8883;-76
2021/09/04 08:28:42;;;;;;;;;27.00;23.00;;;;;;;;5061451;28;8852;-76
2021/09/04 08:31:09;;;;;;;;;24.40;22.00;;;;;;;;5059725;28;8821;-76
2021/09/04 08:33:36;;;;;;;;;22.20;22.20;;;;;;;;5065004;28;8905;-77
2021/09/04 08:36:04;;;;;;;;;27.40;25.60;;;;;;;;5067055;28;8860;-76
2021/09/04 08:38:33;;;;;;;;;23.20;22.80;;;;;;;;5064172;28;8893;-75
2021/09/04 08:41:00;;;;;;;;;21.20;19.60;;;;;;;;5059019;28;8893;-75
2021/09/04 08:43:27;;;;;;;;;25.20;25.20;;;;;;;;5068294;28;8845;-75
2021/09/04 08:45:55;;;;;;;;;24.00;22.00;;;;;;;;5047988;28;8948;-77
2021/09/04 08:48:22;;;;;;;;;21.60;21.60;;;;;;;;5062690;28;8848;-78
2021/09/04 08:50:50;;;;;;;;;28.40;26.40;;;;;;;;5066628;28;8869;-75
2021/09/04 08:53:18;;;;;;;;;23.20;21.20;;;;;;;;5060997;28;9677;-77
2021/09/04 08:55:47;;;;;;;;;25.20;25.20;;;;;;;;5067905;28;8868;-77
2021/09/04 08:58:14;;;;;;;;;26.20;24.00;;;;;;;;5045733;28;9796;-75
2021/09/04 09:00:44;;;;;;;;;22.80;22.80;;;;;;;;5065753;28;9681;-77
2021/09/04 09:03:22;;;;;;;;;25.40;22.40;;;;;;;;5061741;28;8886;-76
2021/09/04 09:05:49;;;;;;;;;27.20;25.60;;;;;;;;5065503;28;8902;-75
2021/09/04 09:08:17;;;;;;;;;26.20;26.20;;;;;;;;5061836;28;8845;-76
2021/09/04 09:10:46;;;;;;;;;24.00;22.60;;;;;;;;5065921;28;8905;-78
2021/09/04 09:13:17;;;;;;;;;20.60;20.60;;;;;;;;5065852;28;8875;-76
2021/09/04 09:15:45;;;;;;;;;19.80;19.80;;;;;;;;5061233;28;9641;-77
2021/09/04 09:18:15;;;;;;;;;20.80;20.40;;;;;;;;5061138;28;8857;-75
2021/09/04 09:20:43;;;;;;;;;22.80;19.80;;;;;;;;5057102;28;8855;-75
2021/09/04 09:23:13;;;;;;;;;16.80;16.80;;;;;;;;5062932;28;8876;-75
2021/09/04 09:25:41;;;;;;;;;25.20;23.80;;;;;;;;5061142;28;8905;-75
2021/09/04 09:28:14;;;;;;;;;21.60;21.60;;;;;;;;5062263;28;9671;-76
2021/09/04 09:30:43;;;;;;;;;18.40;18.40;;;;;;;;5065656;28;8838;-75
2021/09/04 09:33:13;;;;;;;;;23.20;20.20;;;;;;;;5066105;28;8872;-76
2021/09/04 09:35:43;;;;;;;;;21.40;21.40;;;;;;;;5065378;28;9650;-76
2021/09/04 09:38:13;;;;;;;;;15.80;14.60;;;;;;;;5065665;28;8868;-75
2021/09/04 09:40:41;;;;;;;;;18.40;18.40;;;;;;;;5064897;28;8871;-75
2021/09/04 09:43:16;;;;;;;;;24.00;24.00;;;;;;;;5065805;28;8840;-75
2021/09/04 09:45:48;;;;;;;;;20.00;18.40;;;;;;;;5068886;28;8987;-76
2021/09/04 09:48:19;;;;;;;;;16.40;16.40;;;;;;;;5074772;28;8902;-75
2021/09/04 09:50:46;;;;;;;;;16.60;16.60;;;;;;;;5065238;28;8856;-75
2021/09/04 09:53:14;;;;;;;;;16.20;16.20;;;;;;;;5084639;28;8927;-76
2021/09/04 09:55:45;;;;;;;;;17.80;17.60;;;;;;;;5059422;28;8855;-76
2021/09/04 09:58:14;;;;;;;;;17.00;17.00;;;;;;;;5080588;28;8881;-77
2021/09/04 10:00:42;;;;;;;;;16.20;16.20;;;;;;;;5068251;28;8881;-76
2021/09/04 10:03:11;;;;;;;;;14.20;13.80;;;;;;;;5068183;28;8977;-76
2021/09/04 10:05:39;;;;;;;;;13.80;13.80;;;;;;;;5069353;28;8856;-77
2021/09/04 10:08:07;;;;;;;;;18.00;16.60;;;;;;;;5066823;28;9631;-78
2021/09/04 10:10:37;;;;;;;;;12.20;12.20;;;;;;;;5085507;28;8865;-76
2021/09/04 10:13:05;;;;;;;;;15.80;15.80;;;;;;;;5074026;28;8851;-76
2021/09/04 10:15:36;;;;;;;;;15.60;15.60;;;;;;;;5067885;28;8856;-77
2021/09/04 10:18:06;;;;;;;;;15.40;15.00;;;;;;;;5082320;28;8868;-76
2021/09/04 10:20:34;;;;;;;;;16.40;16.40;;;;;;;;5069345;28;8857;-78
2021/09/04 10:23:21;;;;;;;;;12.60;12.60;;;;;;;;5078284;28;8926;-78
2021/09/04 10:25:48;;;;;;;;;14.80;14.80;;;;;;;;5071170;28;8924;-77
2021/09/04 10:28:15;;;;;;;;;14.80;13.20;;;;;;;;5073628;28;8888;-76
2021/09/04 10:30:45;;;;;;;;;11.60;8.80;;;;;;;;5067061;28;8829;-78
2021/09/04 10:33:16;;;;;;;;;13.80;13.00;;;;;;;;5066870;28;8969;-75
2021/09/04 10:36:04;;;;;;;;;14.20;13.20;;;;;;;;5067538;28;8824;-76
2021/09/04 10:38:38;;;;;;;;;21.60;20.00;;;;;;;;5061475;28;8882;-76
2021/09/04 10:41:23;;;;;;;;;14.00;14.00;;;;;;;;5057545;28;9003;-77
2021/09/04 10:43:57;;;;;;;;;14.20;14.20;;;;;;;;5070479;28;8956;-76
2021/09/04 10:46:26;;;;;;;;;15.00;13.20;;;;;;;;5069528;28;8848;-76
2021/09/04 10:48:59;;;;;;;;;16.60;16.60;;;;;;;;5063891;28;8898;-76
2021/09/04 10:51:49;;;;;;;;;13.40;13.40;;;;;;;;5074249;28;8899;-76
2021/09/04 10:54:39;;;;;;;;;14.40;14.40;;;;;;;;5053337;28;8961;-77
2021/09/04 10:57:17;;;;;;;;;12.80;12.80;;;;;;;;5063794;28;8839;-77
2021/09/04 11:00:03;;;;;;;;;9.60;9.60;;;;;;;;5047354;28;8883;-76
2021/09/04 11:02:45;;;;;;;;;12.00;10.80;;;;;;;;5059359;28;8833;-75
2021/09/04 11:05:49;;;;;;;;;12.00;12.00;;;;;;;;5073974;28;8966;-77
2021/09/04 11:08:35;;;;;;;;;16.00;14.20;;;;;;;;5068443;28;8865;-75
2021/09/04 11:11:28;;;;;;;;;12.00;12.00;;;;;;;;5072710;28;8865;-76
2021/09/04 11:13:57;;;;;;;;;14.40;11.60;;;;;;;;5066751;28;9633;-74
2021/09/04 11:16:44;;;;;;;;;14.40;13.00;;;;;;;;5066727;28;8908;-76
2021/09/04 11:19:16;;;;;;;;;10.80;10.40;;;;;;;;5064063;28;8848;-75
2021/09/04 11:21:56;;;;;;;;;12.20;12.20;;;;;;;;5064684;28;8875;-75
2021/09/04 11:24:42;;;;;;;;;9.80;9.80;;;;;;;;5048378;28;9396;-75
2021/09/04 11:27:12;;;;;;;;;9.20;9.20;;;;;;;;5065574;28;8859;-75
2021/09/04 11:29:41;;;;;;;;;9.20;9.20;;;;;;;;5069179;28;8961;-75
2021/09/04 11:32:09;;;;;;;;;12.20;11.80;;;;;;;;5064986;28;8808;-75
2021/09/04 11:34:40;;;;;;;;;10.40;10.40;;;;;;;;5063309;28;8896;-77
2021/09/04 11:37:15;;;;;;;;;10.00;10.00;;;;;;;;5068068;28;8922;-76
2021/09/04 11:39:43;;;;;;;;;13.00;13.00;;;;;;;;5066803;28;8876;-78
2021/09/04 11:42:14;;;;;;;;;12.00;11.20;;;;;;;;5067822;28;8868;-75
2021/09/04 11:44:48;;;;;;;;;10.60;10.60;;;;;;;;5064587;28;8865;-75
2021/09/04 11:47:15;;;;;;;;;10.60;10.60;;;;;;;;5061316;28;8907;-75
2021/09/04 11:49:46;;;;;;;;;7.80;7.80;;;;;;;;5068209;28;8849;-76
2021/09/04 11:52:22;;;;;;;;;11.00;11.00;;;;;;;;5064296;28;8897;-76
2021/09/04 11:54:50;;;;;;;;;7.60;7.60;;;;;;;;5067417;28;8938;-76
2021/09/04 11:57:24;;;;;;;;;7.40;7.20;;;;;;;;5044576;28;8888;-76
2021/09/04 11:59:59;;;;;;;;;10.00;8.20;;;;;;;;5064451;28;8987;-76
2021/09/04 12:02:27;;;;;;;;;8.80;8.80;;;;;;;;5066564;28;8828;-77
2021/09/04 12:04:56;;;;;;;;;9.20;9.20;;;;;;;;5062974;28;8862;-77
2021/09/04 12:07:26;;;;;;;;;7.20;7.20;;;;;;;;5060277;28;8917;-75
2021/09/04 12:09:56;;;;;;;;;8.80;8.80;;;;;;;;5066416;28;8852;-75
2021/09/04 12:12:26;;;;;;;;;7.00;7.00;;;;;;;;5068731;28;9643;-75
2021/09/04 12:14:54;;;;;;;;;9.00;9.00;;;;;;;;5042751;28;8871;-75
2021/09/04 12:17:22;;;;;;;;;9.00;9.00;;;;;;;;5066876;28;8897;-74
2021/09/04 12:19:49;;;;;;;;;10.20;9.40;;;;;;;;5064247;28;8875;-75
2021/09/04 12:22:19;;;;;;;;;13.40;11.60;;;;;;;;5064277;28;8931;-74
2021/09/04 12:24:46;;;;;;;;;7.60;7.60;;;;;;;;5062327;28;8867;-75
2021/09/04 12:27:13;;;;;;;;;9.00;9.00;;;;;;;;5059780;28;8882;-76
2021/09/04 12:29:41;;;;;;;;;9.00;8.80;;;;;;;;5063498;28;9575;-75
2021/09/04 12:32:10;;;;;;;;;9.40;9.40;;;;;;;;5060094;28;8812;-75
2021/09/04 12:34:38;;;;;;;;;10.20;10.20;;;;;;;;5062933;28;8880;-75
2021/09/04 12:37:26;;;;;;;;;11.00;11.00;;;;;;;;5061270;28;8850;-75
2021/09/04 12:39:53;;;;;;;;;11.00;9.40;;;;;;;;5062492;28;8867;-75
2021/09/04 12:42:21;;;;;;;;;7.20;7.20;;;;;;;;5063107;28;8875;-75
2021/09/04 12:44:48;;;;;;;;;10.20;8.40;;;;;;;;5061729;28;8888;-75
2021/09/04 12:47:16;;;;;;;;;11.80;9.80;;;;;;;;5061717;28;8876;-77
2021/09/04 12:49:53;;;;;;;;;9.80;9.80;;;;;;;;5065622;28;8886;-77
2021/09/04 12:52:27;;;;;;;;;10.00;8.00;;;;;;;;5065405;28;8899;-76
2021/09/04 12:54:58;;;;;;;;;9.00;9.00;;;;;;;;5067856;28;8874;-75
2021/09/04 12:57:27;;;;;;;;;9.00;9.00;;;;;;;;5066438;28;8898;-75
2021/09/04 12:59:56;;;;;;;;;10.00;9.80;;;;;;;;5062304;28;8920;-75
2021/09/04 13:02:25;;;;;;;;;10.20;8.40;;;;;;;;5060703;28;8858;-74
2021/09/04 13:04:57;;;;;;;;;7.00;7.00;;;;;;;;5064482;28;8885;-75
2021/09/04 13:07:27;;;;;;;;;7.00;7.00;;;;;;;;5066205;28;8864;-74
2021/09/04 13:09:55;;;;;;;;;9.80;9.80;;;;;;;;5066284;28;8941;-75
2021/09/04 13:12:22;;;;;;;;;8.40;8.40;;;;;;;;5067652;28;8848;-75
2021/09/04 13:14:50;;;;;;;;;8.60;8.60;;;;;;;;5063503;28;8914;-75
2021/09/04 13:17:17;;;;;;;;;9.40;9.40;;;;;;;;5065985;28;8948;-75
2021/09/04 13:19:44;;;;;;;;;6.60;6.60;;;;;;;;5066334;28;8887;-75
2021/09/04 13:22:12;;;;;;;;;7.40;7.40;;;;;;;;5071324;28;8891;-75
2021/09/04 13:24:41;;;;;;;;;9.00;9.00;;;;;;;;5064914;28;8944;-76
2021/09/04 13:27:08;;;;;;;;;10.20;7.80;;;;;;;;5065031;28;8860;-75
2021/09/04 13:29:36;;;;;;;;;7.40;7.40;;;;;;;;5066227;28;8890;-77
2021/09/04 13:32:04;;;;;;;;;6.80;6.80;;;;;;;;5064712;28;8816;-76
2021/09/04 13:34:31;;;;;;;;;7.20;7.20;;;;;;;;5064142;28;8917;-76
2021/09/04 13:36:59;;;;;;;;;9.20;8.00;;;;;;;;5059493;28;8893;-75
2021/09/04 13:39:27;;;;;;;;;6.80;6.80;;;;;;;;5062474;28;9693;-75
2021/09/04 13:41:56;;;;;;;;;7.20;7.20;;;;;;;;5061746;28;8860;-75
2021/09/04 13:44:23;;;;;;;;;9.40;7.80;;;;;;;;5061312;28;8860;-75
2021/09/04 13:46:51;;;;;;;;;7.60;7.60;;;;;;;;5063337;28;8894;-75
2021/09/04 13:49:18;;;;;;;;;6.80;6.80;;;;;;;;5062918;28;8879;-75
2021/09/04 13:51:45;;;;;;;;;5.60;5.60;;;;;;;;5065849;28;8860;-75
2021/09/04 13:54:13;;;;;;;;;9.00;7.00;;;;;;;;5064241;28;8879;-75
2021/09/04 13:56:40;;;;;;;;;5.00;5.00;;;;;;;;5062654;28;8929;-75
2021/09/04 13:59:09;;;;;;;;;7.20;7.20;;;;;;;;5063059;28;9008;-74
2021/09/04 14:01:37;;;;;;;;;5.60;5.60;;;;;;;;5066079;28;8878;-74
2021/09/04 14:04:04;;;;;;;;;7.00;7.00;;;;;;;;5050107;28;8898;-75
2021/09/04 14:06:32;;;;;;;;;6.80;6.80;;;;;;;;5068048;28;8879;-74
2021/09/04 14:08:59;;;;;;;;;4.80;4.80;;;;;;;;5075591;28;8840;-74
2021/09/04 14:11:27;;;;;;;;;5.60;5.60;;;;;;;;5079270;28;8911;-75
2021/09/04 14:13:54;;;;;;;;;5.40;5.40;;;;;;;;5063096;28;8880;-75
2021/09/04 14:16:23;;;;;;;;;6.00;6.00;;;;;;;;5068383;28;9010;-75
2021/09/04 14:18:50;;;;;;;;;5.60;5.60;;;;;;;;5075225;28;9693;-75
2021/09/04 14:21:18;;;;;;;;;5.60;5.60;;;;;;;;5082302;28;8880;-75
2021/09/04 14:23:45;;;;;;;;;5.80;5.80;;;;;;;;5066379;28;9625;-78
2021/09/04 14:26:12;;;;;;;;;6.20;6.20;;;;;;;;5081471;28;8865;-77
2021/09/04 14:28:39;;;;;;;;;4.60;4.60;;;;;;;;5084886;28;8917;-79
2021/09/04 14:31:06;;;;;;;;;6.80;6.80;;;;;;;;5071106;28;8846;-77
2021/09/04 14:33:35;;;;;;;;;2.60;2.20;;;;;;;;5064276;28;8966;-77
2021/09/04 14:36:02;;;;;;;;;5.40;5.40;;;;;;;;5069282;28;8900;-78
2021/09/04 14:38:30;;;;;;;;;5.40;5.40;;;;;;;;5062857;28;8872;-76
2021/09/04 14:40:57;;;;;;;;;6.60;6.00;;;;;;;;5061363;28;8992;-78
2021/09/04 14:43:24;;;;;;;;;6.00;6.00;;;;;;;;5064437;28;8970;-78
2021/09/04 14:45:51;;;;;;;;;6.00;5.80;;;;;;;;5043332;28;8886;-77